Time;durP1;ratioP1;P1;durP2;ratioP2;P2;SDS_P1;SDS_P2;PMS_P1;PMS_P2;Temp;Humidity;BMP_temperature;BMP_pressure;BME280_temperature;BME280_humidity;BME280_pressure;Samples;Min_cycle;Max_cycle;Signal;HPM_P1;HPM_P2
2022/08/05 00:01:37;;;;;;;5.45;2.88;;;18.60;99.90;;;;;;5091947;28;20048;-72
2022/08/05 00:04:03;;;;;;;5.82;2.50;;;18.60;99.90;;;;;;5086426;28;20033;-71
2022/08/05 00:06:29;;;;;;;5.03;2.95;;;18.70;99.90;;;;;;5085001;28;20111;-71
2022/08/05 00:08:54;;;;;;;4.32;2.45;;;18.50;99.90;;;;;;5075362;28;20124;-71
2022/08/05 00:11:20;;;;;;;5.07;2.80;;;18.50;99.90;;;;;;5074582;28;20032;-72
2022/08/05 00:13:46;;;;;;;7.20;2.72;;;18.50;99.90;;;;;;5081989;28;20072;-71
2022/08/05 00:16:14;;;;;;;3.38;2.20;;;18.50;99.90;;;;;;5072281;28;20137;-71
2022/08/05 00:18:42;;;;;;;6.53;2.80;;;18.50;99.90;;;;;;5075010;28;20036;-71
2022/08/05 00:21:08;;;;;;;6.15;2.78;;;18.50;99.90;;;;;;5087882;28;20119;-72
2022/08/05 00:23:35;;;;;;;6.53;2.85;;;18.50;99.90;;;;;;5080326;28;20125;-72
2022/08/05 00:26:00;;;;;;;7.47;2.60;;;18.40;99.90;;;;;;5076341;28;20047;-72
2022/08/05 00:28:26;;;;;;;8.38;2.65;;;;;;;;;;5090604;28;20048;-72
2022/08/05 00:30:52;;;;;;;5.82;2.45;;;18.30;99.90;;;;;;5085523;28;20432;-72
2022/08/05 00:33:17;;;;;;;5.75;2.20;;;18.30;99.90;;;;;;5090280;28;20036;-71
2022/08/05 00:35:43;;;;;;;5.18;2.45;;;18.40;99.90;;;;;;5089483;28;20062;-72
2022/08/05 00:38:09;;;;;;;5.78;1.98;;;18.50;99.90;;;;;;5086334;28;20046;-71
2022/08/05 00:40:45;;;;;;;5.70;2.53;;;18.50;99.90;;;;;;5084405;28;20482;-71
2022/08/05 00:43:11;;;;;;;4.22;2.17;;;18.50;99.90;;;;;;5073651;28;20079;-72
2022/08/05 00:45:37;;;;;;;5.13;2.40;;;18.50;99.90;;;;;;5087753;28;20040;-72
2022/08/05 00:48:02;;;;;;;5.25;2.10;;;18.60;99.90;;;;;;5084379;28;20055;-72
2022/08/05 00:50:28;;;;;;;5.13;2.10;;;18.60;99.90;;;;;;5077340;28;20060;-72
2022/08/05 00:52:53;;;;;;;3.58;2.10;;;18.60;99.90;;;;;;5072600;28;20053;-71
2022/08/05 00:55:19;;;;;;;5.10;2.22;;;18.70;99.90;;;;;;5085218;28;20453;-72
2022/08/05 00:57:44;;;;;;;4.22;2.22;;;18.70;99.90;;;;;;5089215;28;20143;-71
2022/08/05 01:00:11;;;;;;;3.63;1.90;;;18.80;99.90;;;;;;5091243;28;20035;-71
2022/08/05 01:02:36;;;;;;;4.00;1.75;;;18.80;99.90;;;;;;5072110;28;20052;-71
2022/08/05 01:05:02;;;;;;;5.15;2.30;;;18.80;99.90;;;;;;5092368;28;20046;-71
2022/08/05 01:07:27;;;;;;;3.88;1.90;;;18.80;99.90;;;;;;5091118;28;20130;-72
2022/08/05 01:09:53;;;;;;;4.78;2.00;;;18.90;99.90;;;;;;5073133;28;20059;-72
2022/08/05 01:12:22;;;;;;;4.93;2.40;;;18.90;99.90;;;;;;5082678;28;20468;-71
2022/08/05 01:14:55;;;;;;;5.10;2.60;;;18.90;99.90;;;;;;5081366;28;20036;-72
2022/08/05 01:17:44;;;;;;;5.40;2.03;;;18.90;99.90;;;;;;5083795;28;20055;-71
2022/08/05 01:20:42;;;;;;;4.05;2.17;;;18.90;99.90;;;;;;5073588;28;20040;-71
2022/08/05 01:23:45;;;;;;;6.60;2.67;;;18.90;99.90;;;;;;5048857;28;20056;-72
2022/08/05 01:26:54;;;;;;;3.83;1.90;;;18.90;99.90;;;;;;5071952;28;20119;-72
2022/08/05 01:29:28;;;;;;;5.40;2.20;;;18.90;99.90;;;;;;5081769;28;20064;-71
2022/08/05 01:31:59;;;;;;;5.25;2.40;;;18.90;99.90;;;;;;5078214;28;20086;-72
2022/08/05 01:34:29;;;;;;;5.43;2.13;;;18.90;99.90;;;;;;5072529;28;20114;-71
2022/08/05 01:37:10;;;;;;;3.35;2.30;;;18.90;99.90;;;;;;5080063;28;20076;-72
2022/08/05 01:39:38;;;;;;;3.72;2.30;;;18.90;99.90;;;;;;5089275;28;20050;-71
2022/08/05 01:42:07;;;;;;;9.43;2.80;;;18.90;99.90;;;;;;5076828;28;20059;-72
2022/08/05 01:44:34;;;;;;;3.25;1.90;;;18.90;99.90;;;;;;5089941;28;20122;-71
2022/08/05 01:47:01;;;;;;;3.85;1.90;;;18.80;99.90;;;;;;5090127;28;20416;-71
2022/08/05 01:49:29;;;;;;;5.30;2.35;;;18.80;99.90;;;;;;5078434;28;20063;-72
2022/08/05 01:51:59;;;;;;;5.35;2.20;;;18.80;99.90;;;;;;5079721;28;20041;-72
2022/08/05 01:54:34;;;;;;;5.93;2.38;;;18.70;99.90;;;;;;5080751;28;20044;-72
2022/08/05 01:57:01;;;;;;;4.85;2.35;;;18.70;99.90;;;;;;5077039;28;20545;-71
2022/08/05 01:59:29;;;;;;;4.32;2.78;;;18.60;99.90;;;;;;5083325;28;20651;-71
2022/08/05 02:01:57;;;;;;;5.20;2.30;;;18.60;99.90;;;;;;5091326;28;20064;-71
2022/08/05 02:04:26;;;;;;;5.75;2.45;;;18.60;99.90;;;;;;5086676;28;20047;-71
2022/08/05 02:06:52;;;;;;;5.85;2.28;;;18.70;99.90;;;;;;5088501;28;20050;-72
2022/08/05 02:09:18;;;;;;;7.10;2.42;;;18.70;99.90;;;;;;5082463;28;20036;-72
2022/08/05 02:11:54;;;;;;;4.18;2.50;;;18.60;99.90;;;;;;5091092;28;20135;-72
2022/08/05 02:14:29;;;;;;;6.18;2.50;;;18.70;99.90;;;;;;5103186;28;20079;-72
2022/08/05 02:17:05;;;;;;;4.50;2.40;;;18.70;99.90;;;;;;5072320;28;20101;-71
2022/08/05 02:19:35;;;;;;;4.78;2.45;;;18.60;99.90;;;;;;5077616;28;20484;-72
2022/08/05 02:22:10;;;;;;;5.28;2.55;;;18.70;99.90;;;;;;5058133;28;20086;-72
2022/08/05 02:24:39;;;;;;;6.93;2.40;;;18.60;99.90;;;;;;5088019;28;20036;-72
2022/08/05 02:27:09;;;;;;;8.10;2.30;;;18.70;99.90;;;;;;5080272;28;20122;-72
2022/08/05 02:29:35;;;;;;;5.97;2.47;;;18.70;99.90;;;;;;5086308;28;20113;-72
2022/08/05 02:32:03;;;;;;;4.05;2.70;;;18.70;99.90;;;;;;5088591;28;20071;-72
2022/08/05 02:34:31;;;;;;;5.55;2.63;;;18.60;99.90;;;;;;5078146;28;20364;-72
2022/08/05 02:37:01;;;;;;;3.50;2.30;;;18.60;99.90;;;;;;5087991;28;20042;-71
2022/08/05 02:39:31;;;;;;;5.03;2.50;;;18.60;99.90;;;;;;5087630;28;20078;-71
2022/08/05 02:41:58;;;;;;;5.22;2.85;;;18.60;99.90;;;;;;5089075;28;20071;-72
2022/08/05 02:44:25;;;;;;;3.90;2.35;;;18.60;99.90;;;;;;5082362;28;20081;-71
2022/08/05 02:46:53;;;;;;;4.32;2.60;;;18.60;99.90;;;;;;5075792;28;20399;-72
2022/08/05 02:49:20;;;;;;;5.85;2.17;;;18.60;99.90;;;;;;5077233;28;20059;-71
2022/08/05 02:51:46;;;;;;;5.70;2.47;;;18.50;99.90;;;;;;5088088;28;20540;-71
2022/08/05 02:54:13;;;;;;;5.28;2.50;;;18.50;99.90;;;;;;5079312;28;20101;-71
2022/08/05 02:56:41;;;;;;;5.40;2.45;;;18.50;99.90;;;;;;5055160;28;20044;-71
2022/08/05 02:59:10;;;;;;;4.15;2.40;;;18.40;99.90;;;;;;5078813;28;20040;-71
2022/08/05 03:01:39;;;;;;;3.78;2.45;;;18.40;99.90;;;;;;5088854;28;20108;-71
2022/08/05 03:04:08;;;;;;;5.85;2.80;;;18.40;99.90;;;;;;5076692;28;20028;-72
2022/08/05 03:06:35;;;;;;;7.72;3.35;;;18.40;99.90;;;;;;5085385;28;20059;-72
2022/08/05 03:09:01;;;;;;;5.00;2.80;;;18.40;99.90;;;;;;5090265;28;20631;-71
2022/08/05 03:11:27;;;;;;;7.43;3.60;;;18.40;99.90;;;;;;5094589;28;20044;-71
2022/08/05 03:13:53;;;;;;;5.85;3.45;;;18.40;99.90;;;;;;5083272;28;20028;-71
2022/08/05 03:16:19;;;;;;;7.95;3.95;;;18.40;99.90;;;;;;5082576;28;20045;-72
2022/08/05 03:18:45;;;;;;;7.32;3.35;;;18.40;99.90;;;;;;5078067;28;20460;-71
2022/08/05 03:21:12;;;;;;;5.55;3.65;;;18.40;99.90;;;;;;5091103;28;20028;-67
2022/08/05 03:23:39;;;;;;;6.85;4.00;;;18.40;99.90;;;;;;5090233;28;20128;-72
2022/08/05 03:26:05;;;;;;;4.65;3.30;;;18.40;99.90;;;;;;5074931;28;20037;-71
2022/08/05 03:28:31;;;;;;;6.03;3.60;;;18.30;99.90;;;;;;5079601;28;20040;-72
2022/08/05 03:30:59;;;;;;;6.20;3.55;;;18.30;99.90;;;;;;5083173;28;20051;-72
2022/08/05 03:33:26;;;;;;;7.45;3.88;;;18.30;99.90;;;;;;5081235;28;20089;-71
2022/08/05 03:35:54;;;;;;;4.57;3.50;;;18.30;99.90;;;;;;5092225;28;20781;-71
2022/08/05 03:38:21;;;;;;;4.97;3.58;;;18.30;99.90;;;;;;5091679;28;20050;-71
2022/08/05 03:40:47;;;;;;;7.13;3.58;;;18.30;99.90;;;;;;5079447;28;20035;-72
2022/08/05 03:43:14;;;;;;;5.10;3.80;;;18.30;99.90;;;;;;5087069;28;20040;-72
2022/08/05 03:45:39;;;;;;;5.22;3.95;;;18.30;99.90;;;;;;5093737;28;20484;-71
2022/08/05 03:48:05;;;;;;;6.50;3.85;;;18.30;99.90;;;;;;5094590;28;20075;-71
2022/08/05 03:51:06;;;;;;;4.20;3.47;;;18.30;99.90;;;;;;5094958;28;20048;-72
2022/08/05 03:53:40;;;;;;;6.50;3.85;;;18.30;99.90;;;;;;5093061;28;20056;-71
2022/08/05 03:56:11;;;;;;;7.00;4.20;;;18.20;99.90;;;;;;5080334;28;20426;-71
2022/08/05 03:58:40;;;;;;;4.35;3.80;;;18.20;99.90;;;;;;5074306;28;20080;-72
2022/08/05 04:01:08;;;;;;;5.63;3.78;;;18.20;99.90;;;;;;5080412;28;20036;-72
2022/08/05 04:03:36;;;;;;;6.78;3.85;;;18.20;99.90;;;;;;5091206;28;20056;-72
2022/08/05 04:06:04;;;;;;;4.72;4.03;;;18.20;99.90;;;;;;5093262;28;20476;-72
2022/08/05 04:08:32;;;;;;;6.25;3.97;;;18.20;99.90;;;;;;5074898;22;20057;-72
2022/08/05 04:10:58;;;;;;;5.38;4.10;;;18.20;99.90;;;;;;5052459;28;20049;-72
2022/08/05 04:13:25;;;;;;;4.32;3.60;;;18.10;99.90;;;;;;5036154;28;20455;-72
2022/08/05 04:15:51;;;;;;;6.10;4.10;;;18.10;99.90;;;;;;5068126;28;20487;-71
2022/08/05 04:18:17;;;;;;;4.97;3.92;;;18.10;99.90;;;;;;5047128;28;20044;-72
2022/08/05 04:20:42;;;;;;;6.18;4.18;;;18.10;99.90;;;;;;5048878;28;20037;-72
2022/08/05 04:23:11;;;;;;;7.45;4.85;;;18.10;99.90;;;;;;5052362;28;20232;-72
2022/08/05 04:25:37;;;;;;;4.97;4.47;;;18.10;99.90;;;;;;5052466;28;20413;-72
2022/08/05 04:28:03;;;;;;;6.70;3.88;;;18.00;99.90;;;;;;5035748;28;20103;-72
2022/08/05 04:30:28;;;;;;;6.63;4.05;;;18.10;99.90;;;;;;5051870;28;20048;-72
2022/08/05 04:32:54;;;;;;;6.50;3.50;;;18.10;99.90;;;;;;5051403;28;20033;-72
2022/08/05 04:35:19;;;;;;;5.82;4.00;;;18.10;99.90;;;;;;5051036;28;20041;-72
2022/08/05 04:37:45;;;;;;;7.22;3.97;;;18.10;99.90;;;;;;5051601;28;20044;-72
2022/08/05 04:40:10;;;;;;;5.55;4.10;;;18.10;99.90;;;;;;5051216;28;20527;-72
2022/08/05 04:42:36;;;;;;;6.00;4.32;;;18.10;99.90;;;;;;5051972;28;20452;-72
2022/08/05 04:45:02;;;;;;;7.95;3.97;;;18.10;99.90;;;;;;5035411;28;20501;-72
2022/08/05 04:47:28;;;;;;;6.38;4.22;;;18.10;99.90;;;;;;5051204;28;20048;-72
2022/08/05 04:49:54;;;;;;;5.25;3.38;;;18.10;99.90;;;;;;5062618;28;20037;-72
2022/08/05 04:52:19;;;;;;;5.03;3.50;;;18.10;99.90;;;;;;5050880;28;20107;-72
2022/08/05 04:54:45;;;;;;;4.35;3.70;;;18.10;99.90;;;;;;5047550;28;20041;-72
2022/08/05 04:57:10;;;;;;;7.00;3.80;;;18.10;99.90;;;;;;5031671;28;20044;-72
2022/08/05 04:59:36;;;;;;;5.07;3.30;;;18.10;99.90;;;;;;5031116;28;20046;-72
2022/08/05 05:02:01;;;;;;;7.65;4.07;;;18.10;99.90;;;;;;5046903;28;20039;-72
2022/08/05 05:04:27;;;;;;;5.20;3.35;;;18.20;99.90;;;;;;5033598;28;20037;-72
2022/08/05 05:06:52;;;;;;;5.65;3.60;;;18.20;99.90;;;;;;5034045;28;20045;-72
2022/08/05 05:09:18;;;;;;;6.65;3.40;;;18.20;99.90;;;;;;5030629;28;20053;-72
2022/08/05 05:11:44;;;;;;;6.13;3.83;;;18.20;99.90;;;;;;5031293;28;20084;-72
2022/08/05 05:14:10;;;;;;;5.45;4.13;;;18.20;99.90;;;;;;5032100;28;20045;-72
2022/08/05 05:16:35;;;;;;;7.07;3.65;;;18.30;99.90;;;;;;5041715;28;20063;-72
2022/08/05 05:19:01;;;;;;;5.65;4.00;;;18.30;99.90;;;;;;5049123;28;20044;-72
2022/08/05 05:21:26;;;;;;;6.07;3.97;;;18.30;99.90;;;;;;5036085;28;20045;-72
2022/08/05 05:23:52;;;;;;;7.13;4.00;;;18.30;99.90;;;;;;5030586;28;20089;-72
2022/08/05 05:26:17;;;;;;;6.68;3.83;;;18.40;99.90;;;;;;5030200;28;20041;-72
2022/08/05 05:28:43;;;;;;;5.22;4.07;;;18.40;99.90;;;;;;5029337;28;20370;-72
2022/08/05 05:31:09;;;;;;;5.03;3.67;;;18.40;99.90;;;;;;5033500;28;20045;-72
2022/08/05 05:33:34;;;;;;;5.50;3.60;;;18.40;99.90;;;;;;5032503;28;20083;-72
2022/08/05 05:36:00;;;;;;;7.88;3.80;;;18.40;99.90;;;;;;5050334;28;20048;-72
2022/08/05 05:38:25;;;;;;;5.18;3.22;;;18.50;99.90;;;;;;5035319;28;20045;-72
2022/08/05 05:40:51;;;;;;;8.77;3.45;;;18.40;99.90;;;;;;5031084;28;20052;-72
2022/08/05 05:43:17;;;;;;;5.75;3.75;;;18.40;99.90;;;;;;5014441;28;20049;-72
2022/08/05 05:45:43;;;;;;;4.97;3.40;;;18.40;99.90;;;;;;5031107;28;20429;-72
2022/08/05 05:48:09;;;;;;;6.40;3.25;;;18.50;99.90;;;;;;5031131;28;20045;-72
2022/08/05 05:50:35;;;;;;;4.25;2.97;;;18.50;99.90;;;;;;5043257;28;20545;-72
2022/08/05 05:53:01;;;;;;;4.53;3.60;;;18.60;99.90;;;;;;5049942;28;20494;-72
2022/08/05 05:55:26;;;;;;;5.50;3.40;;;18.60;99.90;;;;;;5033451;28;20053;-72
2022/08/05 05:57:52;;;;;;;5.75;3.80;;;18.60;99.90;;;;;;5040322;28;20040;-72
2022/08/05 06:00:19;;;;;;;4.40;3.38;;;18.70;99.90;;;;;;5046177;28;20398;-72
2022/08/05 06:02:46;;;;;;;6.90;3.00;;;18.90;99.90;;;;;;5052083;28;20418;-72
2022/08/05 06:05:13;;;;;;;5.35;3.28;;;19.10;99.90;;;;;;5033988;28;20056;-72
2022/08/05 06:07:39;;;;;;;6.38;3.20;;;19.20;99.90;;;;;;5033822;28;20127;-72
2022/08/05 06:10:06;;;;;;;3.33;3.00;;;19.60;99.90;;;;;;5033842;28;20116;-72
2022/08/05 06:12:33;;;;;;;5.00;2.88;;;20.40;99.90;;;;;;5033941;28;20041;-72
2022/08/05 06:15:00;;;;;;;4.38;2.80;;;20.80;99.90;;;;;;5031510;28;20115;-72
2022/08/05 06:17:26;;;;;;;4.47;3.03;;;21.50;99.90;;;;;;5042890;28;20040;-72
2022/08/05 06:19:51;;;;;;;3.40;2.65;;;22.20;99.90;;;;;;5050373;28;20037;-72
2022/08/05 06:22:28;;;;;;;4.13;2.28;;;23.20;99.90;;;;;;5050174;28;20080;-72
2022/08/05 06:24:55;;;;;;;5.60;2.22;;;24.50;99.90;;;;;;5050117;28;20045;-72
2022/08/05 06:27:21;;;;;;;3.00;2.25;;;25.60;99.90;;;;;;5049047;28;20103;-72
2022/08/05 06:29:47;;;;;;;3.40;2.05;;;;;;;;;;5061543;28;20091;-72
2022/08/05 06:32:13;;;;;;;2.55;1.65;;;26.60;97.00;;;;;;5021457;28;20033;-72
2022/08/05 06:34:39;;;;;;;3.58;1.83;;;26.30;96.70;;;;;;5033780;28;20108;-73
2022/08/05 06:37:05;;;;;;;4.28;1.80;;;25.60;96.10;;;;;;5048360;28;20068;-73
2022/08/05 06:39:30;;;;;;;4.88;1.77;;;26.40;96.80;;;;;;5049182;28;20098;-73
2022/08/05 06:41:57;;;;;;;3.53;1.40;;;26.50;96.30;;;;;;5050290;28;20056;-72
2022/08/05 06:44:23;;;;;;;3.65;1.50;;;26.40;95.80;;;;;;5032373;28;20040;-72
2022/08/05 06:46:48;;;;;;;3.80;1.70;;;25.90;96.00;;;;;;5049802;28;20517;-72
2022/08/05 06:49:14;;;;;;;6.72;1.80;;;26.20;96.70;;;;;;5048873;28;20049;-72
2022/08/05 06:51:40;;;;;;;4.00;1.50;;;25.90;95.50;;;;;;5033254;28;20095;-72
2022/08/05 06:54:05;;;;;;;3.22;1.70;;;26.90;95.00;;;;;;5033431;28;20049;-72
2022/08/05 06:56:31;;;;;;;3.67;1.58;;;26.90;94.80;;;;;;5050142;28;20120;-73
2022/08/05 06:58:57;;;;;;;3.78;1.55;;;27.70;93.80;;;;;;5024910;28;20045;-73
2022/08/05 07:01:23;;;;;;;1.80;1.13;;;27.20;93.20;;;;;;5030125;28;20502;-73
2022/08/05 07:03:49;;;;;;;1.73;1.13;;;27.40;93.30;;;;;;5032850;28;20049;-73
2022/08/05 07:06:14;;;;;;;2.05;1.30;;;27.30;92.40;;;;;;5026370;28;20068;-73
2022/08/05 07:08:44;;;;;;;2.42;0.90;;;27.20;93.00;;;;;;5033095;28;20056;-73
2022/08/05 07:11:10;;;;;;;2.80;0.93;;;27.70;92.30;;;;;;5047498;28;20473;-73
2022/08/05 07:19:04;;;;;;;1.85;0.93;;;27.80;91.00;;;;;;5033180;28;20045;-73
2022/08/05 07:21:30;;;;;;;3.17;0.80;;;28.00;91.50;;;;;;5041618;28;20066;-73
2022/08/05 07:23:56;;;;;;;2.17;0.80;;;27.70;90.70;;;;;;5050003;28;20044;-73
2022/08/05 07:26:21;;;;;;;2.95;1.00;;;27.70;91.00;;;;;;5036315;28;20072;-73
2022/08/05 07:28:49;;;;;;;2.25;1.00;;;27.00;89.10;;;;;;5029837;28;20042;-73
2022/08/05 07:31:15;;;;;;;1.13;0.70;;;27.10;90.90;;;;;;5030743;28;20049;-73
2022/08/05 07:33:41;;;;;;;2.13;0.95;;;27.10;90.40;;;;;;5021633;28;20041;-73
2022/08/05 07:36:07;;;;;;;4.05;0.70;;;26.50;90.90;;;;;;5039201;28;20033;-73
2022/08/05 07:38:33;;;;;;;4.72;0.82;;;26.30;91.90;;;;;;5047355;28;20040;-73
2022/08/05 07:40:59;;;;;;;2.15;0.70;;;26.10;92.40;;;;;;5030966;28;20033;-72
2022/08/05 07:43:25;;;;;;;2.38;0.90;;;25.70;92.80;;;;;;5029498;28;20046;-72
2022/08/05 07:45:50;;;;;;;3.22;0.80;;;25.50;93.20;;;;;;5036486;28;20506;-73
2022/08/05 07:48:16;;;;;;;2.00;0.80;;;25.20;93.50;;;;;;5048817;28;20445;-73
2022/08/05 07:50:41;;;;;;;1.88;0.90;;;24.90;93.30;;;;;;5029815;28;20046;-73
2022/08/05 07:53:07;;;;;;;2.80;1.00;;;24.60;93.30;;;;;;5038053;28;20041;-73
2022/08/05 07:55:33;;;;;;;2.72;1.00;;;23.90;93.10;;;;;;5039317;28;20503;-73
2022/08/05 07:57:59;;;;;;;2.75;0.90;;;23.20;94.30;;;;;;5032739;28;20080;-73
2022/08/05 08:00:24;;;;;;;4.47;1.30;;;23.00;94.90;;;;;;5037328;28;20120;-73
2022/08/05 08:02:50;;;;;;;1.85;0.65;;;22.80;95.40;;;;;;5051438;28;20042;-73
2022/08/05 08:05:16;;;;;;;2.75;0.80;;;23.10;95.80;;;;;;5046205;28;20425;-73
2022/08/05 08:07:41;;;;;;;2.95;1.27;;;23.20;94.50;;;;;;5045879;28;20085;-74
2022/08/05 08:10:07;;;;;;;3.97;1.38;;;23.50;94.20;;;;;;5043507;28;20088;-73
2022/08/05 08:12:33;;;;;;;2.22;0.90;;;23.10;94.00;;;;;;5045948;28;20037;-73
2022/08/05 08:14:58;;;;;;;1.27;0.68;;;22.60;94.40;;;;;;5052632;28;20055;-73
2022/08/05 08:17:24;;;;;;;2.25;0.82;;;22.70;95.50;;;;;;5052752;28;20195;-73
2022/08/05 08:19:49;;;;;;;1.08;0.68;;;22.80;95.70;;;;;;5051224;28;20045;-73
2022/08/05 08:22:15;;;;;;;2.55;0.88;;;22.80;95.30;;;;;;5052396;28;20045;-73
2022/08/05 08:24:41;;;;;;;2.83;0.90;;;22.70;95.20;;;;;;5051998;28;20040;-73
2022/08/05 08:27:07;;;;;;;3.67;1.00;;;22.60;95.10;;;;;;5051570;28;20059;-73
2022/08/05 08:29:32;;;;;;;2.17;0.73;;;22.50;95.50;;;;;;5052561;28;20036;-73
2022/08/05 08:31:58;;;;;;;1.77;0.75;;;22.50;96.10;;;;;;5052600;28;20102;-73
2022/08/05 08:34:25;;;;;;;5.22;1.00;;;22.70;96.20;;;;;;5039709;28;20041;-73
2022/08/05 08:36:50;;;;;;;1.30;0.80;;;22.90;94.30;;;;;;5034071;28;20939;-73
2022/08/05 08:39:17;;;;;;;3.13;0.80;;;23.00;95.00;;;;;;5052006;28;20041;-73
2022/08/05 08:41:55;;;;;;;1.58;0.60;;;23.30;94.90;;;;;;5050449;28;20453;-73
2022/08/05 08:44:23;;;;;;;2.47;0.75;;;23.40;95.10;;;;;;5034742;28;20036;-73
2022/08/05 08:46:49;;;;;;;2.45;0.80;;;23.40;94.80;;;;;;5051299;28;20677;-73
2022/08/05 08:49:17;;;;;;;1.42;0.73;;;23.40;94.90;;;;;;5035516;28;20037;-73
2022/08/05 08:51:47;;;;;;;3.10;0.75;;;23.30;94.30;;;;;;5022276;28;20059;-73
2022/08/05 08:54:13;;;;;;;2.60;0.82;;;23.40;93.10;;;;;;5047916;28;20554;-73
2022/08/05 08:56:39;;;;;;;1.95;0.80;;;23.40;93.00;;;;;;5051059;28;20116;-73
2022/08/05 08:59:05;;;;;;;3.58;0.68;;;23.50;93.90;;;;;;5038526;28;20045;-74
2022/08/05 09:01:31;;;;;;;2.05;0.70;;;23.70;94.00;;;;;;5034876;28;20449;-73
2022/08/05 09:03:59;;;;;;;1.10;0.50;;;23.40;92.50;;;;;;5034528;28;20404;-73
2022/08/05 09:06:27;;;;;;;2.15;0.68;;;23.60;93.90;;;;;;5030836;28;20057;-73
2022/08/05 09:08:52;;;;;;;2.90;0.77;;;23.50;93.10;;;;;;5030448;28;20061;-72
2022/08/05 09:11:18;;;;;;;2.40;0.63;;;23.50;93.90;;;;;;5037188;28;20059;-73
2022/08/05 09:13:44;;;;;;;0.98;0.50;;;23.80;93.50;;;;;;5045662;28;20043;-73
2022/08/05 09:16:11;;;;;;;1.95;1.05;;;24.00;92.40;;;;;;5032130;28;20040;-73
2022/08/05 09:18:37;;;;;;;1.60;0.70;;;24.00;92.50;;;;;;5038704;28;20048;-73
2022/08/05 09:21:03;;;;;;;3.40;0.80;;;23.60;92.30;;;;;;5044500;28;20041;-73
2022/08/05 09:23:29;;;;;;;1.75;0.80;;;23.70;93.30;;;;;;5045640;28;20041;-73
2022/08/05 09:26:10;;;;;;;2.25;0.70;;;24.00;93.60;;;;;;5048482;28;20090;-73
2022/08/05 09:28:38;;;;;;;3.17;0.82;;;23.80;92.60;;;;;;5047367;28;20040;-73
2022/08/05 09:31:09;;;;;;;2.35;0.90;;;24.00;93.00;;;;;;5033750;28;20049;-73
2022/08/05 09:33:51;;;;;;;3.03;0.70;;;24.30;93.20;;;;;;5049117;28;20098;-72
2022/08/05 09:36:18;;;;;;;1.17;0.52;;;24.50;92.30;;;;;;5030435;28;20518;-73
2022/08/05 09:39:00;;;;;;;2.50;0.60;;;24.00;90.30;;;;;;5030624;28;20413;-73
2022/08/05 09:41:26;;;;;;;2.60;0.60;;;24.00;92.20;;;;;;5026122;28;20033;-72
2022/08/05 09:43:52;;;;;;;2.15;0.68;;;23.90;89.50;;;;;;5030190;28;20049;-74
2022/08/05 09:46:31;;;;;;;1.92;0.60;;;23.90;91.00;;;;;;5038061;28;20086;-73
2022/08/05 09:49:03;;;;;;;1.83;0.52;;;23.60;90.00;;;;;;5014359;28;20060;-73
2022/08/05 09:51:34;;;;;;;1.25;0.65;;;23.80;91.20;;;;;;5034094;28;20071;-72
2022/08/05 09:54:00;;;;;;;;;;;23.80;90.40;;;;;;5042547;28;20037;-72
2022/08/05 09:56:33;;;;;;;0.52;0.40;;;23.70;90.00;;;;;;5048799;28;20431;-74
2022/08/05 09:59:02;;;;;;;3.95;0.80;;;23.60;90.70;;;;;;5038255;28;20458;-73
2022/08/05 10:01:32;;;;;;;2.33;0.60;;;23.60;91.40;;;;;;5037499;28;20037;-72
2022/08/05 10:04:04;;;;;;;0.50;0.35;;;23.60;90.80;;;;;;5066496;28;20048;-73
2022/08/05 10:06:30;;;;;;;1.13;0.50;;;23.40;88.60;;;;;;5052605;28;20045;-72
2022/08/05 10:09:16;;;;;;;2.33;0.50;;;23.40;89.70;;;;;;5044269;28;20133;-72
2022/08/05 10:11:43;;;;;;;2.17;0.60;;;23.50;91.00;;;;;;5043257;28;20049;-72
2022/08/05 10:14:29;;;;;;;1.70;0.52;;;23.50;91.30;;;;;;5045850;28;20049;-71
2022/08/05 10:16:56;;;;;;;1.67;0.63;;;23.50;87.40;;;;;;5049073;28;20544;-72
2022/08/05 10:19:22;;;;;;;1.80;0.63;;;23.50;87.00;;;;;;5038481;28;20487;-72
2022/08/05 10:21:49;;;;;;;3.28;0.70;;;23.50;87.50;;;;;;5046804;28;20039;-72
2022/08/05 10:24:19;;;;;;;0.85;0.50;;;23.70;90.10;;;;;;5047759;28;20489;-72
2022/08/05 10:26:47;;;;;;;2.20;0.68;;;23.80;86.10;;;;;;5042510;28;20045;-72
2022/08/05 10:29:13;;;;;;;1.42;0.38;;;23.70;85.80;;;;;;5040467;28;20119;-73
2022/08/05 10:31:38;;;;;;;1.20;0.43;;;23.60;90.00;;;;;;5034339;28;20176;-72
2022/08/05 10:34:06;;;;;;;1.52;0.52;;;23.50;87.70;;;;;;5038023;28;20029;-73
2022/08/05 10:36:32;;;;;;;2.60;0.60;;;23.50;84.60;;;;;;5050085;28;20123;-72
2022/08/05 10:39:04;;;;;;;2.38;0.50;;;23.40;85.40;;;;;;5042128;28;20387;-73
2022/08/05 10:41:38;;;;;;;1.75;0.50;;;23.30;85.70;;;;;;5036864;28;20049;-72
2022/08/05 10:44:14;;;;;;;0.82;0.43;;;23.40;86.20;;;;;;5038221;28;20036;-74
2022/08/05 10:46:51;;;;;;;2.72;0.47;;;23.10;84.50;;;;;;5029968;28;20046;-73
2022/08/05 10:49:17;;;;;;;1.33;0.40;;;23.00;82.40;;;;;;5013659;28;20071;-73
2022/08/05 10:51:45;;;;;;;1.85;0.40;;;22.90;78.50;;;;;;5048051;28;20037;-74
2022/08/05 10:54:11;;;;;;;2.45;0.40;;;22.90;82.10;;;;;;5048206;28;20048;-73
2022/08/05 10:56:49;;;;;;;1.42;0.30;;;22.90;77.90;;;;;;5049451;28;20801;-74
2022/08/05 10:59:26;;;;;;;2.75;0.43;;;22.80;70.30;;;;;;5050119;28;20060;-73
2022/08/05 11:02:12;;;;;;;0.70;0.28;;;22.90;81.40;;;;;;5048962;28;20048;-75
2022/08/05 11:04:45;;;;;;;1.45;0.28;;;22.80;68.30;;;;;;5032403;28;20044;-74
2022/08/05 11:07:14;;;;;;;1.60;0.22;;;22.80;74.00;;;;;;5034816;28;20135;-74
2022/08/05 11:09:49;;;;;;;0.80;0.30;;;23.00;78.60;;;;;;5035521;28;20436;-72
2022/08/05 11:12:35;;;;;;;4.13;0.40;;;22.90;67.50;;;;;;5049895;28;20052;-72
2022/08/05 11:15:05;;;;;;;0.95;0.40;;;22.90;73.00;;;;;;5049628;28;20051;-73
2022/08/05 11:17:33;;;;;;;2.63;0.32;;;23.10;72.80;;;;;;5049671;28;20513;-73
2022/08/05 11:19:59;;;;;;;2.10;0.30;;;23.00;75.30;;;;;;5048672;28;20159;-72
2022/08/05 11:22:50;;;;;;;1.58;0.30;;;23.10;69.10;;;;;;5048776;28;20044;-73
2022/08/05 11:25:36;;;;;;;0.40;0.20;;;23.00;68.20;;;;;;5029382;28;20051;-72
2022/08/05 11:28:10;;;;;;;1.27;0.40;;;23.00;66.80;;;;;;5052004;28;20502;-74
2022/08/05 11:31:09;;;;;;;2.25;0.40;;;23.30;75.10;;;;;;5052379;28;20048;-73
2022/08/05 11:33:50;;;;;;;0.80;0.38;;;23.50;76.50;;;;;;5026845;28;20056;-73
2022/08/05 11:36:19;;;;;;;0.68;0.30;;;23.60;75.60;;;;;;5030404;28;20405;-73
2022/08/05 11:38:46;;;;;;;1.55;0.30;;;23.60;72.70;;;;;;5043469;28;20045;-74
2022/08/05 11:41:26;;;;;;;0.77;0.40;;;23.50;78.00;;;;;;5043837;28;20045;-72
2022/08/05 11:43:54;;;;;;;1.85;0.30;;;23.50;72.30;;;;;;5022134;28;20037;-73
2022/08/05 11:46:35;;;;;;;0.22;0.20;;;23.70;71.00;;;;;;5042678;28;20040;-72
2022/08/05 11:49:02;;;;;;;0.63;0.40;;;23.60;72.80;;;;;;5052724;28;20052;-72
2022/08/05 11:51:28;;;;;;;0.85;0.30;;;23.70;77.80;;;;;;5052850;28;20045;-73
2022/08/05 11:53:55;;;;;;;0.32;0.20;;;23.60;71.70;;;;;;5036230;28;20120;-72
2022/08/05 11:56:21;;;;;;;1.60;0.30;;;23.60;69.60;;;;;;5052915;28;20049;-73
2022/08/05 11:58:48;;;;;;;0.43;0.30;;;23.70;70.50;;;;;;5052961;28;20039;-72
2022/08/05 12:01:19;;;;;;;2.40;0.50;;;23.70;69.20;;;;;;5052931;28;20569;-72
2022/08/05 12:03:48;;;;;;;1.85;0.50;;;23.80;73.80;;;;;;5053048;28;20062;-73
2022/08/05 12:06:15;;;;;;;1.45;0.30;;;23.60;72.40;;;;;;5052836;28;20142;-74
2022/08/05 12:08:48;;;;;;;0.93;0.35;;;23.70;73.30;;;;;;5052590;28;20084;-73
2022/08/05 12:11:29;;;;;;;1.42;0.30;;;23.60;69.50;;;;;;5035954;28;20090;-73
2022/08/05 12:14:00;;;;;;;0.55;0.35;;;23.30;68.60;;;;;;5052592;28;20450;-72
2022/08/05 12:16:34;;;;;;;0.93;0.30;;;23.30;69.00;;;;;;5052501;28;20045;-73
2022/08/05 12:19:00;;;;;;;2.95;0.40;;;23.40;73.40;;;;;;5052438;28;20037;-73
2022/08/05 12:21:31;;;;;;;1.45;0.35;;;23.60;75.50;;;;;;5052431;28;20604;-72
2022/08/05 12:23:58;;;;;;;1.73;0.40;;;23.80;73.20;;;;;;5052739;28;20126;-71
2022/08/05 12:26:29;;;;;;;0.95;0.38;;;23.70;70.90;;;;;;5035759;28;20127;-72
2022/08/05 12:28:54;;;;;;;0.75;0.30;;;24.20;77.40;;;;;;5052392;28;20048;-72
2022/08/05 12:31:20;;;;;;;1.17;0.40;;;23.80;77.90;;;;;;5052245;28;20379;-73
2022/08/05 12:33:45;;;;;;;1.40;0.40;;;23.80;77.00;;;;;;5052250;28;20087;-73
2022/08/05 12:36:11;;;;;;;0.90;0.35;;;23.60;79.80;;;;;;5052274;28;20398;-72
2022/08/05 12:38:38;;;;;;;2.40;0.45;;;23.30;82.00;;;;;;5035360;28;20390;-73
2022/08/05 12:41:08;;;;;;;1.95;0.70;;;23.00;79.50;;;;;;5052454;28;20145;-74
2022/08/05 12:43:33;;;;;;;2.95;0.50;;;23.20;81.70;;;;;;5052262;28;20059;-73
2022/08/05 12:45:59;;;;;;;1.85;0.50;;;23.30;80.50;;;;;;5052321;28;20052;-73
2022/08/05 12:48:24;;;;;;;2.15;0.40;;;23.30;79.20;;;;;;5051958;28;20053;-73
2022/08/05 12:51:11;;;;;;;0.82;0.40;;;23.50;82.70;;;;;;5053256;28;20041;-71
2022/08/05 12:53:41;;;;;;;0.57;0.22;;;23.70;77.30;;;;;;5044705;28;20033;-72
2022/08/05 12:56:16;;;;;;;1.13;0.43;;;23.60;77.60;;;;;;5032727;28;20049;-72
2022/08/05 12:58:42;;;;;;;2.55;0.60;;;23.70;80.70;;;;;;5028773;28;20094;-72
2022/08/05 13:01:08;;;;;;;1.52;0.40;;;23.70;79.00;;;;;;5034352;28;20119;-71